sensor_id;sensor_type;location;lat;lon;timestamp;P1;durP1;ratioP1;P2;durP2;ratioP2
68192;SDS011;55012;47.562;18.414;2023-04-24T00:01:21;20.58;;;11.68;;
68192;SDS011;55012;47.562;18.414;2023-04-24T00:03:46;22.45;;;11.30;;
68192;SDS011;55012;47.562;18.414;2023-04-24T00:06:12;19.05;;;11.98;;
68192;SDS011;55012;47.562;18.414;2023-04-24T00:08:37;19.77;;;11.52;;
68192;SDS011;55012;47.562;18.414;2023-04-24T00:11:03;20.25;;;11.90;;
68192;SDS011;55012;47.562;18.414;2023-04-24T00:13:28;20.33;;;11.45;;
68192;SDS011;55012;47.562;18.414;2023-04-24T00:15:54;17.33;;;10.45;;
68192;SDS011;55012;47.562;18.414;2023-04-24T00:18:21;17.45;;;9.70;;
68192;SDS011;55012;47.562;18.414;2023-04-24T00:20:46;17.25;;;9.27;;
68192;SDS011;55012;47.562;18.414;2023-04-24T00:23:12;12.32;;;7.90;;
68192;SDS011;55012;47.562;18.414;2023-04-24T00:25:38;13.13;;;8.05;;
68192;SDS011;55012;47.562;18.414;2023-04-24T00:28:03;15.35;;;8.98;;
68192;SDS011;55012;47.562;18.414;2023-04-24T00:30:29;11.48;;;7.30;;
68192;SDS011;55012;47.562;18.414;2023-04-24T00:32:55;11.50;;;7.82;;
68192;SDS011;55012;47.562;18.414;2023-04-24T00:35:20;12.68;;;8.05;;
68192;SDS011;55012;47.562;18.414;2023-04-24T00:37:46;21.77;;;12.82;;
68192;SDS011;55012;47.562;18.414;2023-04-24T00:40:11;33.25;;;16.20;;
68192;SDS011;55012;47.562;18.414;2023-04-24T00:42:37;44.38;;;21.52;;
68192;SDS011;55012;47.562;18.414;2023-04-24T00:45:03;41.15;;;20.45;;
68192;SDS011;55012;47.562;18.414;2023-04-24T00:47:30;38.72;;;18.63;;
68192;SDS011;55012;47.562;18.414;2023-04-24T00:49:56;24.60;;;13.60;;
68192;SDS011;55012;47.562;18.414;2023-04-24T00:52:22;20.40;;;10.70;;
68192;SDS011;55012;47.562;18.414;2023-04-24T00:54:49;17.50;;;9.10;;
68192;SDS011;55012;47.562;18.414;2023-04-24T00:57:15;12.73;;;7.55;;
68192;SDS011;55012;47.562;18.414;2023-04-24T00:59:41;9.70;;;6.93;;
68192;SDS011;55012;47.562;18.414;2023-04-24T01:02:08;7.55;;;5.40;;
68192;SDS011;55012;47.562;18.414;2023-04-24T01:04:36;11.05;;;6.18;;
68192;SDS011;55012;47.562;18.414;2023-04-24T01:07:02;10.85;;;7.57;;
68192;SDS011;55012;47.562;18.414;2023-04-24T01:09:29;10.73;;;7.10;;
68192;SDS011;55012;47.562;18.414;2023-04-24T01:11:55;12.13;;;7.63;;
68192;SDS011;55012;47.562;18.414;2023-04-24T01:14:21;9.38;;;6.25;;
68192;SDS011;55012;47.562;18.414;2023-04-24T01:16:47;10.13;;;7.00;;
68192;SDS011;55012;47.562;18.414;2023-04-24T01:19:13;17.15;;;8.23;;
68192;SDS011;55012;47.562;18.414;2023-04-24T01:21:40;12.52;;;6.93;;
68192;SDS011;55012;47.562;18.414;2023-04-24T01:24:08;22.70;;;11.02;;
68192;SDS011;55012;47.562;18.414;2023-04-24T01:26:33;25.42;;;12.88;;
68192;SDS011;55012;47.562;18.414;2023-04-24T01:28:59;22.23;;;12.15;;
68192;SDS011;55012;47.562;18.414;2023-04-24T01:31:25;24.67;;;12.45;;
68192;SDS011;55012;47.562;18.414;2023-04-24T01:33:51;25.48;;;12.30;;
68192;SDS011;55012;47.562;18.414;2023-04-24T01:36:17;20.00;;;11.88;;
68192;SDS011;55012;47.562;18.414;2023-04-24T01:38:43;19.45;;;10.85;;
68192;SDS011;55012;47.562;18.414;2023-04-24T01:41:09;18.52;;;10.10;;
68192;SDS011;55012;47.562;18.414;2023-04-24T01:43:35;20.45;;;11.82;;
68192;SDS011;55012;47.562;18.414;2023-04-24T01:46:00;18.98;;;10.80;;
68192;SDS011;55012;47.562;18.414;2023-04-24T01:48:26;17.67;;;10.27;;
68192;SDS011;55012;47.562;18.414;2023-04-24T01:50:52;15.63;;;8.85;;
68192;SDS011;55012;47.562;18.414;2023-04-24T01:53:17;15.45;;;8.60;;
68192;SDS011;55012;47.562;18.414;2023-04-24T01:55:43;11.45;;;7.40;;
68192;SDS011;55012;47.562;18.414;2023-04-24T01:58:08;12.90;;;7.30;;
68192;SDS011;55012;47.562;18.414;2023-04-24T02:00:34;12.88;;;8.05;;
68192;SDS011;55012;47.562;18.414;2023-04-24T02:03:00;13.30;;;7.10;;
68192;SDS011;55012;47.562;18.414;2023-04-24T02:05:26;11.15;;;7.45;;
68192;SDS011;55012;47.562;18.414;2023-04-24T02:07:52;13.93;;;8.32;;
68192;SDS011;55012;47.562;18.414;2023-04-24T02:10:18;11.02;;;7.75;;
68192;SDS011;55012;47.562;18.414;2023-04-24T02:12:43;15.18;;;9.02;;
68192;SDS011;55012;47.562;18.414;2023-04-24T02:15:09;9.85;;;6.90;;
68192;SDS011;55012;47.562;18.414;2023-04-24T02:17:35;11.05;;;7.57;;
68192;SDS011;55012;47.562;18.414;2023-04-24T02:20:01;10.95;;;7.78;;
68192;SDS011;55012;47.562;18.414;2023-04-24T02:22:27;12.07;;;7.82;;
68192;SDS011;55012;47.562;18.414;2023-04-24T02:24:52;13.00;;;8.32;;
68192;SDS011;55012;47.562;18.414;2023-04-24T02:27:18;11.45;;;8.00;;
68192;SDS011;55012;47.562;18.414;2023-04-24T02:29:43;12.65;;;8.07;;
68192;SDS011;55012;47.562;18.414;2023-04-24T02:32:08;12.02;;;7.70;;
68192;SDS011;55012;47.562;18.414;2023-04-24T02:34:37;13.30;;;8.60;;
68192;SDS011;55012;47.562;18.414;2023-04-24T02:37:02;13.02;;;7.57;;
68192;SDS011;55012;47.562;18.414;2023-04-24T02:39:28;12.90;;;8.07;;
68192;SDS011;55012;47.562;18.414;2023-04-24T02:41:53;12.15;;;7.75;;
68192;SDS011;55012;47.562;18.414;2023-04-24T02:44:19;11.32;;;7.82;;
68192;SDS011;55012;47.562;18.414;2023-04-24T02:46:44;12.90;;;8.48;;
68192;SDS011;55012;47.562;18.414;2023-04-24T02:49:10;11.75;;;8.40;;
68192;SDS011;55012;47.562;18.414;2023-04-24T02:51:37;12.85;;;8.30;;
68192;SDS011;55012;47.562;18.414;2023-04-24T02:54:05;13.13;;;7.90;;
68192;SDS011;55012;47.562;18.414;2023-04-24T02:56:31;13.15;;;7.85;;
68192;SDS011;55012;47.562;18.414;2023-04-24T02:58:56;11.80;;;8.60;;
68192;SDS011;55012;47.562;18.414;2023-04-24T03:01:21;11.57;;;8.20;;
68192;SDS011;55012;47.562;18.414;2023-04-24T03:03:47;10.63;;;7.57;;
68192;SDS011;55012;47.562;18.414;2023-04-24T03:06:12;10.52;;;7.70;;
68192;SDS011;55012;47.562;18.414;2023-04-24T03:08:38;11.52;;;7.97;;
68192;SDS011;55012;47.562;18.414;2023-04-24T03:11:03;14.77;;;8.70;;
68192;SDS011;55012;47.562;18.414;2023-04-24T03:13:29;14.40;;;9.30;;
68192;SDS011;55012;47.562;18.414;2023-04-24T03:15:54;13.63;;;8.75;;
68192;SDS011;55012;47.562;18.414;2023-04-24T03:18:20;14.73;;;9.82;;
68192;SDS011;55012;47.562;18.414;2023-04-24T03:20:45;12.70;;;8.68;;
68192;SDS011;55012;47.562;18.414;2023-04-24T03:23:11;13.40;;;8.95;;
68192;SDS011;55012;47.562;18.414;2023-04-24T03:25:37;12.95;;;8.50;;
68192;SDS011;55012;47.562;18.414;2023-04-24T03:28:02;15.40;;;10.02;;
68192;SDS011;55012;47.562;18.414;2023-04-24T03:30:27;13.07;;;8.55;;
68192;SDS011;55012;47.562;18.414;2023-04-24T03:32:53;12.55;;;8.43;;
68192;SDS011;55012;47.562;18.414;2023-04-24T03:35:18;12.43;;;8.77;;
68192;SDS011;55012;47.562;18.414;2023-04-24T03:37:44;13.50;;;8.38;;
68192;SDS011;55012;47.562;18.414;2023-04-24T03:40:10;17.40;;;8.88;;
68192;SDS011;55012;47.562;18.414;2023-04-24T03:42:35;14.15;;;9.07;;
68192;SDS011;55012;47.562;18.414;2023-04-24T03:45:01;14.05;;;9.25;;
68192;SDS011;55012;47.562;18.414;2023-04-24T03:47:26;13.52;;;8.65;;
68192;SDS011;55012;47.562;18.414;2023-04-24T03:49:52;15.90;;;8.70;;
68192;SDS011;55012;47.562;18.414;2023-04-24T03:52:18;12.55;;;8.75;;
68192;SDS011;55012;47.562;18.414;2023-04-24T03:54:44;10.75;;;8.40;;
68192;SDS011;55012;47.562;18.414;2023-04-24T03:57:09;11.35;;;7.85;;
68192;SDS011;55012;47.562;18.414;2023-04-24T03:59:35;11.90;;;7.65;;
68192;SDS011;55012;47.562;18.414;2023-04-24T04:02:00;12.35;;;7.55;;
68192;SDS011;55012;47.562;18.414;2023-04-24T04:04:26;11.15;;;6.80;;
68192;SDS011;55012;47.562;18.414;2023-04-24T04:06:51;11.60;;;6.78;;
68192;SDS011;55012;47.562;18.414;2023-04-24T04:09:17;11.48;;;6.45;;
68192;SDS011;55012;47.562;18.414;2023-04-24T04:11:42;11.05;;;7.13;;
68192;SDS011;55012;47.562;18.414;2023-04-24T04:14:08;9.82;;;6.20;;
68192;SDS011;55012;47.562;18.414;2023-04-24T04:16:33;11.05;;;6.78;;
68192;SDS011;55012;47.562;18.414;2023-04-24T04:18:58;11.20;;;8.07;;
68192;SDS011;55012;47.562;18.414;2023-04-24T04:21:24;11.98;;;8.13;;
68192;SDS011;55012;47.562;18.414;2023-04-24T04:23:49;10.85;;;7.38;;
68192;SDS011;55012;47.562;18.414;2023-04-24T04:26:15;12.07;;;8.23;;
68192;SDS011;55012;47.562;18.414;2023-04-24T04:28:40;12.20;;;7.90;;
68192;SDS011;55012;47.562;18.414;2023-04-24T04:31:06;13.45;;;8.38;;
68192;SDS011;55012;47.562;18.414;2023-04-24T04:33:33;13.90;;;8.35;;
68192;SDS011;55012;47.562;18.414;2023-04-24T04:35:58;13.52;;;7.47;;
68192;SDS011;55012;47.562;18.414;2023-04-24T04:38:25;12.95;;;8.68;;
68192;SDS011;55012;47.562;18.414;2023-04-24T04:40:51;11.15;;;7.97;;
68192;SDS011;55012;47.562;18.414;2023-04-24T04:43:17;12.38;;;8.60;;
68192;SDS011;55012;47.562;18.414;2023-04-24T04:45:42;14.98;;;8.60;;
68192;SDS011;55012;47.562;18.414;2023-04-24T04:48:08;14.18;;;8.55;;
68192;SDS011;55012;47.562;18.414;2023-04-24T04:50:37;13.52;;;8.43;;
68192;SDS011;55012;47.562;18.414;2023-04-24T04:53:02;12.07;;;7.82;;
68192;SDS011;55012;47.562;18.414;2023-04-24T04:55:28;13.63;;;8.50;;
68192;SDS011;55012;47.562;18.414;2023-04-24T04:57:53;13.10;;;8.07;;
68192;SDS011;55012;47.562;18.414;2023-04-24T05:00:21;14.35;;;8.77;;
68192;SDS011;55012;47.562;18.414;2023-04-24T05:02:46;16.20;;;8.45;;
68192;SDS011;55012;47.562;18.414;2023-04-24T05:05:12;12.77;;;8.60;;
68192;SDS011;55012;47.562;18.414;2023-04-24T05:07:37;16.52;;;9.00;;
68192;SDS011;55012;47.562;18.414;2023-04-24T05:10:03;13.85;;;9.15;;
68192;SDS011;55012;47.562;18.414;2023-04-24T05:12:29;15.35;;;9.20;;
68192;SDS011;55012;47.562;18.414;2023-04-24T05:14:54;13.32;;;9.00;;
68192;SDS011;55012;47.562;18.414;2023-04-24T05:17:20;15.30;;;9.50;;
68192;SDS011;55012;47.562;18.414;2023-04-24T05:19:45;14.38;;;9.88;;
68192;SDS011;55012;47.562;18.414;2023-04-24T05:22:11;18.15;;;9.95;;
68192;SDS011;55012;47.562;18.414;2023-04-24T05:24:37;13.30;;;8.65;;
68192;SDS011;55012;47.562;18.414;2023-04-24T05:27:03;17.77;;;8.65;;
68192;SDS011;55012;47.562;18.414;2023-04-24T05:29:32;16.52;;;9.75;;
68192;SDS011;55012;47.562;18.414;2023-04-24T05:31:58;16.35;;;10.05;;
68192;SDS011;55012;47.562;18.414;2023-04-24T05:34:23;16.20;;;9.85;;
68192;SDS011;55012;47.562;18.414;2023-04-24T05:36:49;17.80;;;10.05;;
68192;SDS011;55012;47.562;18.414;2023-04-24T05:39:15;16.15;;;9.13;;
68192;SDS011;55012;47.562;18.414;2023-04-24T05:41:41;15.73;;;9.50;;
68192;SDS011;55012;47.562;18.414;2023-04-24T05:44:07;17.95;;;10.27;;
68192;SDS011;55012;47.562;18.414;2023-04-24T05:46:32;16.85;;;10.48;;
68192;SDS011;55012;47.562;18.414;2023-04-24T05:48:58;17.48;;;10.70;;
68192;SDS011;55012;47.562;18.414;2023-04-24T05:51:23;16.52;;;10.40;;
68192;SDS011;55012;47.562;18.414;2023-04-24T05:53:49;14.90;;;10.45;;
68192;SDS011;55012;47.562;18.414;2023-04-24T05:56:15;18.15;;;12.10;;
68192;SDS011;55012;47.562;18.414;2023-04-24T05:58:41;18.00;;;11.02;;
68192;SDS011;55012;47.562;18.414;2023-04-24T06:01:06;18.48;;;11.23;;
68192;SDS011;55012;47.562;18.414;2023-04-24T06:03:32;15.90;;;10.45;;
68192;SDS011;55012;47.562;18.414;2023-04-24T06:05:58;14.73;;;9.65;;
68192;SDS011;55012;47.562;18.414;2023-04-24T06:08:23;17.95;;;11.25;;
68192;SDS011;55012;47.562;18.414;2023-04-24T06:10:49;14.60;;;9.90;;
68192;SDS011;55012;47.562;18.414;2023-04-24T06:13:15;20.27;;;10.43;;
68192;SDS011;55012;47.562;18.414;2023-04-24T06:15:41;18.60;;;11.43;;
68192;SDS011;55012;47.562;18.414;2023-04-24T06:18:06;16.90;;;8.55;;
68192;SDS011;55012;47.562;18.414;2023-04-24T06:20:32;19.90;;;8.07;;
68192;SDS011;55012;47.562;18.414;2023-04-24T06:22:58;16.52;;;8.65;;
68192;SDS011;55012;47.562;18.414;2023-04-24T06:25:26;12.90;;;7.93;;
68192;SDS011;55012;47.562;18.414;2023-04-24T06:27:52;19.02;;;8.27;;
68192;SDS011;55012;47.562;18.414;2023-04-24T06:30:17;17.80;;;7.88;;
68192;SDS011;55012;47.562;18.414;2023-04-24T06:32:43;13.80;;;7.90;;
68192;SDS011;55012;47.562;18.414;2023-04-24T06:35:08;12.25;;;7.80;;
68192;SDS011;55012;47.562;18.414;2023-04-24T06:37:36;11.13;;;7.53;;
68192;SDS011;55012;47.562;18.414;2023-04-24T06:40:02;10.88;;;7.40;;
68192;SDS011;55012;47.562;18.414;2023-04-24T06:42:27;11.77;;;7.38;;
68192;SDS011;55012;47.562;18.414;2023-04-24T06:44:53;13.10;;;7.65;;
68192;SDS011;55012;47.562;18.414;2023-04-24T06:47:18;10.65;;;6.90;;
68192;SDS011;55012;47.562;18.414;2023-04-24T06:49:44;10.77;;;7.45;;
68192;SDS011;55012;47.562;18.414;2023-04-24T06:52:09;12.25;;;7.55;;
68192;SDS011;55012;47.562;18.414;2023-04-24T06:54:35;10.00;;;7.05;;
68192;SDS011;55012;47.562;18.414;2023-04-24T06:57:00;12.10;;;7.13;;
68192;SDS011;55012;47.562;18.414;2023-04-24T06:59:27;13.07;;;7.20;;
68192;SDS011;55012;47.562;18.414;2023-04-24T07:01:53;12.15;;;7.70;;
68192;SDS011;55012;47.562;18.414;2023-04-24T07:04:19;9.57;;;7.13;;
68192;SDS011;55012;47.562;18.414;2023-04-24T07:06:45;10.50;;;7.00;;
68192;SDS011;55012;47.562;18.414;2023-04-24T07:09:14;10.40;;;6.70;;
68192;SDS011;55012;47.562;18.414;2023-04-24T07:11:41;11.23;;;7.55;;
68192;SDS011;55012;47.562;18.414;2023-04-24T07:14:06;10.40;;;7.07;;
68192;SDS011;55012;47.562;18.414;2023-04-24T07:16:32;10.68;;;7.25;;
68192;SDS011;55012;47.562;18.414;2023-04-24T07:18:58;10.02;;;6.88;;
68192;SDS011;55012;47.562;18.414;2023-04-24T07:21:23;11.02;;;7.55;;
68192;SDS011;55012;47.562;18.414;2023-04-24T07:23:48;8.80;;;7.13;;
68192;SDS011;55012;47.562;18.414;2023-04-24T07:26:14;9.02;;;6.70;;
68192;SDS011;55012;47.562;18.414;2023-04-24T07:28:40;12.65;;;9.00;;
68192;SDS011;55012;47.562;18.414;2023-04-24T07:31:06;8.90;;;7.10;;
68192;SDS011;55012;47.562;18.414;2023-04-24T07:33:31;13.55;;;9.18;;
68192;SDS011;55012;47.562;18.414;2023-04-24T07:35:57;11.63;;;7.15;;
68192;SDS011;55012;47.562;18.414;2023-04-24T07:38:24;17.73;;;13.35;;
68192;SDS011;55012;47.562;18.414;2023-04-24T07:40:50;10.52;;;7.20;;
68192;SDS011;55012;47.562;18.414;2023-04-24T07:43:16;9.65;;;7.10;;
68192;SDS011;55012;47.562;18.414;2023-04-24T07:45:43;10.02;;;7.10;;
68192;SDS011;55012;47.562;18.414;2023-04-24T07:48:08;9.25;;;7.43;;
68192;SDS011;55012;47.562;18.414;2023-04-24T07:50:34;10.32;;;7.43;;
68192;SDS011;55012;47.562;18.414;2023-04-24T07:53:01;8.73;;;6.65;;
68192;SDS011;55012;47.562;18.414;2023-04-24T07:55:27;8.50;;;6.97;;
68192;SDS011;55012;47.562;18.414;2023-04-24T07:57:52;9.77;;;6.75;;
68192;SDS011;55012;47.562;18.414;2023-04-24T08:00:18;10.50;;;7.35;;
68192;SDS011;55012;47.562;18.414;2023-04-24T08:02:43;9.05;;;6.25;;
68192;SDS011;55012;47.562;18.414;2023-04-24T08:05:09;9.63;;;6.38;;
68192;SDS011;55012;47.562;18.414;2023-04-24T08:07:34;8.43;;;6.72;;
68192;SDS011;55012;47.562;18.414;2023-04-24T08:10:00;9.13;;;6.35;;
68192;SDS011;55012;47.562;18.414;2023-04-24T08:12:27;8.80;;;6.10;;
68192;SDS011;55012;47.562;18.414;2023-04-24T08:14:53;8.82;;;7.03;;
68192;SDS011;55012;47.562;18.414;2023-04-24T08:17:19;7.57;;;6.05;;
68192;SDS011;55012;47.562;18.414;2023-04-24T08:19:44;9.85;;;7.47;;
68192;SDS011;55012;47.562;18.414;2023-04-24T08:22:13;7.55;;;6.10;;
68192;SDS011;55012;47.562;18.414;2023-04-24T08:24:40;8.98;;;6.20;;
68192;SDS011;55012;47.562;18.414;2023-04-24T08:27:05;7.75;;;6.22;;
68192;SDS011;55012;47.562;18.414;2023-04-24T08:29:31;11.60;;;7.43;;
68192;SDS011;55012;47.562;18.414;2023-04-24T08:31:57;10.32;;;6.55;;
68192;SDS011;55012;47.562;18.414;2023-04-24T08:34:22;9.52;;;7.20;;
68192;SDS011;55012;47.562;18.414;2023-04-24T08:36:48;9.23;;;6.47;;
68192;SDS011;55012;47.562;18.414;2023-04-24T08:39:13;9.63;;;7.13;;
68192;SDS011;55012;47.562;18.414;2023-04-24T08:41:41;8.57;;;6.90;;
68192;SDS011;55012;47.562;18.414;2023-04-24T08:44:08;9.55;;;6.88;;
68192;SDS011;55012;47.562;18.414;2023-04-24T08:46:34;9.70;;;6.80;;
68192;SDS011;55012;47.562;18.414;2023-04-24T08:49:01;8.65;;;6.95;;
68192;SDS011;55012;47.562;18.414;2023-04-24T08:51:27;12.00;;;7.57;;
68192;SDS011;55012;47.562;18.414;2023-04-24T08:53:55;8.02;;;6.65;;
68192;SDS011;55012;47.562;18.414;2023-04-24T08:56:21;10.70;;;7.38;;
68192;SDS011;55012;47.562;18.414;2023-04-24T08:58:48;9.25;;;6.70;;
68192;SDS011;55012;47.562;18.414;2023-04-24T09:01:16;8.63;;;6.25;;
68192;SDS011;55012;47.562;18.414;2023-04-24T09:03:44;8.55;;;6.90;;
68192;SDS011;55012;47.562;18.414;2023-04-24T09:06:10;9.45;;;7.10;;
68192;SDS011;55012;47.562;18.414;2023-04-24T09:08:36;9.63;;;6.22;;
68192;SDS011;55012;47.562;18.414;2023-04-24T09:11:04;8.65;;;6.30;;
68192;SDS011;55012;47.562;18.414;2023-04-24T09:13:30;13.07;;;8.55;;
68192;SDS011;55012;47.562;18.414;2023-04-24T09:15:57;13.48;;;8.27;;
68192;SDS011;55012;47.562;18.414;2023-04-24T09:18:23;8.60;;;6.70;;
68192;SDS011;55012;47.562;18.414;2023-04-24T09:20:58;9.98;;;7.00;;
68192;SDS011;55012;47.562;18.414;2023-04-24T09:23:26;13.38;;;7.88;;
68192;SDS011;55012;47.562;18.414;2023-04-24T09:25:56;9.32;;;6.35;;
68192;SDS011;55012;47.562;18.414;2023-04-24T09:28:26;11.02;;;7.10;;
68192;SDS011;55012;47.562;18.414;2023-04-24T09:31:03;9.23;;;6.30;;
68192;SDS011;55012;47.562;18.414;2023-04-24T09:33:30;10.43;;;6.40;;
68192;SDS011;55012;47.562;18.414;2023-04-24T09:35:56;9.15;;;6.70;;
68192;SDS011;55012;47.562;18.414;2023-04-24T09:38:37;9.02;;;6.32;;
68192;SDS011;55012;47.562;18.414;2023-04-24T09:41:07;11.35;;;7.20;;
68192;SDS011;55012;47.562;18.414;2023-04-24T09:43:38;11.13;;;6.65;;
68192;SDS011;55012;47.562;18.414;2023-04-24T09:46:07;7.75;;;6.45;;
68192;SDS011;55012;47.562;18.414;2023-04-24T09:48:35;10.35;;;6.85;;
68192;SDS011;55012;47.562;18.414;2023-04-24T09:51:03;8.85;;;6.40;;
68192;SDS011;55012;47.562;18.414;2023-04-24T09:53:31;8.23;;;6.65;;
68192;SDS011;55012;47.562;18.414;2023-04-24T09:56:06;8.18;;;6.03;;
68192;SDS011;55012;47.562;18.414;2023-04-24T09:58:37;9.13;;;6.15;;
68192;SDS011;55012;47.562;18.414;2023-04-24T10:01:02;9.55;;;6.35;;
68192;SDS011;55012;47.562;18.414;2023-04-24T10:03:31;9.40;;;6.55;;
68192;SDS011;55012;47.562;18.414;2023-04-24T10:06:01;7.78;;;6.13;;
68192;SDS011;55012;47.562;18.414;2023-04-24T10:08:34;8.93;;;6.82;;
68192;SDS011;55012;47.562;18.414;2023-04-24T10:11:01;16.55;;;10.73;;
68192;SDS011;55012;47.562;18.414;2023-04-24T10:13:26;9.90;;;7.10;;
68192;SDS011;55012;47.562;18.414;2023-04-24T10:15:53;10.48;;;7.00;;
68192;SDS011;55012;47.562;18.414;2023-04-24T10:18:19;7.95;;;6.35;;
68192;SDS011;55012;47.562;18.414;2023-04-24T10:20:46;8.95;;;5.75;;
68192;SDS011;55012;47.562;18.414;2023-04-24T10:23:12;9.30;;;5.90;;
68192;SDS011;55012;47.562;18.414;2023-04-24T10:25:38;8.40;;;6.00;;
68192;SDS011;55012;47.562;18.414;2023-04-24T10:28:04;9.32;;;5.80;;
68192;SDS011;55012;47.562;18.414;2023-04-24T10:30:30;7.85;;;6.18;;
68192;SDS011;55012;47.562;18.414;2023-04-24T10:33:00;7.85;;;5.45;;
68192;SDS011;55012;47.562;18.414;2023-04-24T10:35:27;6.07;;;4.82;;
68192;SDS011;55012;47.562;18.414;2023-04-24T10:37:57;7.28;;;5.05;;
68192;SDS011;55012;47.562;18.414;2023-04-24T10:40:27;8.95;;;5.55;;
68192;SDS011;55012;47.562;18.414;2023-04-24T10:42:56;8.07;;;5.90;;
68192;SDS011;55012;47.562;18.414;2023-04-24T10:45:22;13.27;;;8.32;;
68192;SDS011;55012;47.562;18.414;2023-04-24T10:47:58;7.95;;;5.63;;
68192;SDS011;55012;47.562;18.414;2023-04-24T10:50:29;7.90;;;6.07;;
68192;SDS011;55012;47.562;18.414;2023-04-24T10:53:07;9.15;;;6.00;;
68192;SDS011;55012;47.562;18.414;2023-04-24T10:55:47;10.35;;;6.00;;
68192;SDS011;55012;47.562;18.414;2023-04-24T10:58:35;8.00;;;5.80;;
68192;SDS011;55012;47.562;18.414;2023-04-24T11:01:10;6.72;;;4.55;;
68192;SDS011;55012;47.562;18.414;2023-04-24T11:03:56;8.05;;;5.80;;
68192;SDS011;55012;47.562;18.414;2023-04-24T11:06:30;8.05;;;5.75;;
68192;SDS011;55012;47.562;18.414;2023-04-24T11:11:36;6.35;;;4.78;;
68192;SDS011;55012;47.562;18.414;2023-04-24T11:14:05;7.55;;;5.18;;
68192;SDS011;55012;47.562;18.414;2023-04-24T11:16:33;7.35;;;4.80;;
68192;SDS011;55012;47.562;18.414;2023-04-24T11:19:04;7.22;;;4.68;;
68192;SDS011;55012;47.562;18.414;2023-04-24T11:26:50;6.65;;;4.53;;
68192;SDS011;55012;47.562;18.414;2023-04-24T11:29:19;6.78;;;4.50;;
68192;SDS011;55012;47.562;18.414;2023-04-24T11:31:46;6.68;;;4.68;;
68192;SDS011;55012;47.562;18.414;2023-04-24T11:34:14;6.80;;;4.70;;
68192;SDS011;55012;47.562;18.414;2023-04-24T11:36:47;8.75;;;5.10;;
68192;SDS011;55012;47.562;18.414;2023-04-24T11:39:13;7.50;;;4.57;;
68192;SDS011;55012;47.562;18.414;2023-04-24T11:41:39;6.05;;;4.28;;
68192;SDS011;55012;47.562;18.414;2023-04-24T11:44:06;7.43;;;4.68;;
68192;SDS011;55012;47.562;18.414;2023-04-24T11:46:32;6.18;;;4.65;;
68192;SDS011;55012;47.562;18.414;2023-04-24T11:48:58;10.65;;;4.80;;
68192;SDS011;55012;47.562;18.414;2023-04-24T11:51:25;7.53;;;4.75;;
68192;SDS011;55012;47.562;18.414;2023-04-24T11:53:51;8.98;;;5.40;;
68192;SDS011;55012;47.562;18.414;2023-04-24T11:56:23;6.28;;;4.32;;
68192;SDS011;55012;47.562;18.414;2023-04-24T11:58:51;7.82;;;4.60;;
68192;SDS011;55012;47.562;18.414;2023-04-24T12:01:18;10.38;;;4.82;;
68192;SDS011;55012;47.562;18.414;2023-04-24T12:03:50;6.22;;;4.60;;
68192;SDS011;55012;47.562;18.414;2023-04-24T12:06:24;6.95;;;4.85;;
68192;SDS011;55012;47.562;18.414;2023-04-24T12:08:52;6.53;;;5.00;;
68192;SDS011;55012;47.562;18.414;2023-04-24T12:11:20;6.57;;;4.68;;
68192;SDS011;55012;47.562;18.414;2023-04-24T12:13:45;7.05;;;4.50;;
68192;SDS011;55012;47.562;18.414;2023-04-24T12:16:11;6.80;;;4.70;;
68192;SDS011;55012;47.562;18.414;2023-04-24T12:18:44;7.30;;;5.25;;
68192;SDS011;55012;47.562;18.414;2023-04-24T12:21:17;8.27;;;5.90;;
68192;SDS011;55012;47.562;18.414;2023-04-24T12:23:47;9.13;;;6.68;;
68192;SDS011;55012;47.562;18.414;2023-04-24T12:26:17;14.02;;;7.38;;
68192;SDS011;55012;47.562;18.414;2023-04-24T12:28:45;10.32;;;7.50;;
68192;SDS011;55012;47.562;18.414;2023-04-24T12:31:12;7.63;;;5.68;;
68192;SDS011;55012;47.562;18.414;2023-04-24T12:33:38;9.68;;;6.88;;
68192;SDS011;55012;47.562;18.414;2023-04-24T12:36:03;10.60;;;6.32;;
68192;SDS011;55012;47.562;18.414;2023-04-24T12:38:30;11.88;;;6.78;;
68192;SDS011;55012;47.562;18.414;2023-04-24T12:41:05;10.30;;;6.07;;
68192;SDS011;55012;47.562;18.414;2023-04-24T12:43:32;10.40;;;7.00;;
68192;SDS011;55012;47.562;18.414;2023-04-24T12:45:58;11.35;;;6.40;;
68192;SDS011;55012;47.562;18.414;2023-04-24T12:48:27;10.38;;;6.78;;
68192;SDS011;55012;47.562;18.414;2023-04-24T12:50:53;10.15;;;6.70;;
68192;SDS011;55012;47.562;18.414;2023-04-24T12:53:19;12.77;;;7.28;;
68192;SDS011;55012;47.562;18.414;2023-04-24T12:55:45;9.90;;;6.28;;
68192;SDS011;55012;47.562;18.414;2023-04-24T12:58:12;12.20;;;6.75;;
68192;SDS011;55012;47.562;18.414;2023-04-24T13:00:38;10.68;;;5.75;;
68192;SDS011;55012;47.562;18.414;2023-04-24T13:03:04;10.80;;;6.32;;
68192;SDS011;55012;47.562;18.414;2023-04-24T13:05:29;9.07;;;5.35;;
68192;SDS011;55012;47.562;18.414;2023-04-24T13:07:55;9.40;;;5.70;;
68192;SDS011;55012;47.562;18.414;2023-04-24T13:10:20;8.25;;;5.32;;
68192;SDS011;55012;47.562;18.414;2023-04-24T13:12:46;7.85;;;5.40;;
68192;SDS011;55012;47.562;18.414;2023-04-24T13:15:11;7.55;;;5.45;;
68192;SDS011;55012;47.562;18.414;2023-04-24T13:17:37;8.82;;;5.95;;
68192;SDS011;55012;47.562;18.414;2023-04-24T13:20:03;11.13;;;6.40;;
68192;SDS011;55012;47.562;18.414;2023-04-24T13:22:29;9.88;;;5.85;;
68192;SDS011;55012;47.562;18.414;2023-04-24T13:24:55;8.18;;;6.10;;
68192;SDS011;55012;47.562;18.414;2023-04-24T13:27:21;9.85;;;5.90;;
68192;SDS011;55012;47.562;18.414;2023-04-24T13:29:46;8.57;;;6.18;;
68192;SDS011;55012;47.562;18.414;2023-04-24T13:32:12;6.95;;;4.40;;
68192;SDS011;55012;47.562;18.414;2023-04-24T13:34:37;7.05;;;4.72;;
68192;SDS011;55012;47.562;18.414;2023-04-24T13:37:03;7.72;;;4.60;;
68192;SDS011;55012;47.562;18.414;2023-04-24T13:39:29;6.25;;;4.18;;
68192;SDS011;55012;47.562;18.414;2023-04-24T13:41:55;6.88;;;3.97;;
68192;SDS011;55012;47.562;18.414;2023-04-24T13:44:22;5.50;;;4.07;;
68192;SDS011;55012;47.562;18.414;2023-04-24T13:46:49;6.00;;;3.70;;
68192;SDS011;55012;47.562;18.414;2023-04-24T13:49:17;5.05;;;3.40;;
68192;SDS011;55012;47.562;18.414;2023-04-24T13:51:43;5.57;;;3.38;;
68192;SDS011;55012;47.562;18.414;2023-04-24T13:54:09;9.10;;;3.78;;
68192;SDS011;55012;47.562;18.414;2023-04-24T13:56:34;7.18;;;4.00;;
68192;SDS011;55012;47.562;18.414;2023-04-24T13:59:00;4.82;;;3.45;;
68192;SDS011;55012;47.562;18.414;2023-04-24T14:01:26;6.35;;;3.50;;
68192;SDS011;55012;47.562;18.414;2023-04-24T14:03:52;6.10;;;3.83;;
68192;SDS011;55012;47.562;18.414;2023-04-24T14:06:18;6.00;;;3.90;;
68192;SDS011;55012;47.562;18.414;2023-04-24T14:08:44;5.45;;;3.88;;
68192;SDS011;55012;47.562;18.414;2023-04-24T14:11:10;5.30;;;3.70;;
68192;SDS011;55012;47.562;18.414;2023-04-24T14:13:36;7.05;;;4.20;;
68192;SDS011;55012;47.562;18.414;2023-04-24T14:16:02;5.65;;;4.13;;
68192;SDS011;55012;47.562;18.414;2023-04-24T14:18:28;5.63;;;3.70;;
68192;SDS011;55012;47.562;18.414;2023-04-24T14:20:54;5.35;;;3.40;;
68192;SDS011;55012;47.562;18.414;2023-04-24T14:23:19;5.70;;;3.95;;
68192;SDS011;55012;47.562;18.414;2023-04-24T14:25:45;7.03;;;3.83;;
68192;SDS011;55012;47.562;18.414;2023-04-24T14:28:11;6.15;;;3.88;;
68192;SDS011;55012;47.562;18.414;2023-04-24T14:30:36;6.63;;;4.13;;